Orlando, Florida
Current Conditions -  °F | °C
As of 9:53 AM on Saturday 25 Oct 2014 (Local Time) from KORL Reporting Station
Clear Clear  
Wind Chill: 70°   Ceiling: Unl
Heat Index: 70°   Visibility: 10mi
Dew Point: 55°   Wind: 7mph
Humidity: 59%   Direction: 360°N
Pressure: 30"   Gusts: NA
Location:  28.54°N, 81.38°W
Report Text: KORL 251353Z 36006KT 10SM CLR 21/13 A3000 RMK AO2 SLP161 T02110128
Loading
Personal Weather Stations






























Interactive Weather Map
Tropical Storm Tracking
New forecast layout! Learn more

10-Day Weather Forecast

Advertisements
Track Severe Weather on mobile